createdAt,value
2019-05-20T00:01:07.751Z,998.67
2019-05-20T00:01:33.945Z,998.67
2019-05-20T00:02:00.059Z,998.66
2019-05-20T00:02:53.402Z,998.67
2019-05-20T00:03:19.589Z,998.64
2019-05-20T00:04:11.881Z,998.71
2019-05-20T00:05:30.549Z,998.71
2019-05-20T00:06:23.041Z,998.68
2019-05-20T00:06:49.273Z,998.66
2019-05-20T00:07:41.554Z,998.68
2019-05-20T00:08:33.892Z,998.71
2019-05-20T00:09:00.096Z,998.68
2019-05-20T00:09:52.391Z,998.66
2019-05-20T00:11:10.945Z,998.63
2019-05-20T00:12:30.388Z,998.6
2019-05-20T00:13:22.691Z,998.6
2019-05-20T00:13:48.885Z,998.62
2019-05-20T00:14:41.209Z,998.62
2019-05-20T00:15:33.545Z,998.6
2019-05-20T00:15:59.693Z,998.59
2019-05-20T00:16:52.000Z,998.57
2019-05-20T00:18:10.590Z,998.57
2019-05-20T00:19:02.900Z,998.54
2019-05-20T00:19:29.045Z,998.59
2019-05-20T00:20:22.267Z,998.56
2019-05-20T00:21:40.735Z,998.59
2019-05-20T00:22:33.093Z,998.55
2019-05-20T00:22:59.232Z,998.57
2019-05-20T00:23:51.534Z,998.54
2019-05-20T00:24:43.844Z,998.53
2019-05-20T00:25:09.998Z,998.58
2019-05-20T00:26:02.428Z,998.52
2019-05-20T00:27:20.897Z,998.55
2019-05-20T00:28:13.257Z,998.55
2019-05-20T00:28:39.387Z,998.49
2019-05-20T00:29:31.696Z,998.52
2019-05-20T00:30:50.288Z,998.53
2019-05-20T00:31:42.676Z,998.54
2019-05-20T00:32:08.815Z,998.54
2019-05-20T00:33:02.147Z,998.6
2019-05-20T00:34:34.087Z,998.55
2019-05-20T00:35:40.096Z,998.52
2019-05-20T00:36:32.410Z,998.49
2019-05-20T00:37:50.894Z,998.48
2019-05-20T00:38:43.301Z,998.5
2019-05-20T00:39:09.473Z,998.51
2019-05-20T00:40:01.840Z,998.51
2019-05-20T00:41:20.303Z,998.48
2019-05-20T00:42:12.660Z,998.51
2019-05-20T00:42:38.803Z,998.49
2019-05-20T00:43:31.246Z,998.48
2019-05-20T00:44:23.534Z,998.47
2019-05-20T00:44:49.676Z,998.5
2019-05-20T00:45:41.992Z,998.47
2019-05-20T00:47:00.430Z,998.43
2019-05-20T00:47:52.757Z,998.44
2019-05-20T00:48:18.938Z,998.45
2019-05-20T00:49:11.238Z,998.42
2019-05-20T00:50:03.591Z,998.41
2019-05-20T00:50:29.726Z,998.43
2019-05-20T00:51:22.080Z,998.41
2019-05-20T00:52:40.537Z,998.4
2019-05-20T00:53:32.879Z,998.38
2019-05-20T00:53:59.012Z,998.36
2019-05-20T00:54:51.390Z,998.37
2019-05-20T00:55:43.710Z,998.37
2019-05-20T00:56:09.848Z,998.39
2019-05-20T00:57:02.205Z,998.41
2019-05-20T00:58:20.667Z,998.41
2019-05-20T00:59:12.967Z,998.36
2019-05-20T00:59:40.550Z,998.37
2019-05-20T01:00:06.786Z,998.38
2019-05-20T01:00:59.130Z,998.36
2019-05-20T01:01:25.281Z,998.39
2019-05-20T01:02:17.618Z,998.33
2019-05-20T01:03:38.053Z,998.35
2019-05-20T01:04:56.528Z,998.38
2019-05-20T01:05:48.895Z,998.32
2019-05-20T01:06:15.039Z,998.37
2019-05-20T01:07:07.358Z,998.4
2019-05-20T01:07:59.683Z,998.36
2019-05-20T01:08:25.825Z,998.35
2019-05-20T01:09:18.163Z,998.43
2019-05-20T01:10:36.635Z,998.39
2019-05-20T01:11:28.951Z,998.41
2019-05-20T01:11:55.091Z,998.39
2019-05-20T01:12:47.385Z,998.4
2019-05-20T01:13:39.741Z,998.46
2019-05-20T01:14:05.882Z,998.4
2019-05-20T01:14:58.258Z,998.39
2019-05-20T01:16:16.734Z,998.36
2019-05-20T01:17:09.067Z,998.37
2019-05-20T01:17:35.198Z,998.37
2019-05-20T01:18:27.514Z,998.37
2019-05-20T01:19:19.814Z,998.39
2019-05-20T01:19:45.979Z,998.4
2019-05-20T01:20:38.310Z,998.37
2019-05-20T01:21:56.768Z,998.37
2019-05-20T01:22:49.096Z,998.35
2019-05-20T01:23:15.234Z,998.38
2019-05-20T01:24:07.572Z,998.37
2019-05-20T01:24:59.873Z,998.37
2019-05-20T01:25:26.058Z,998.41
2019-05-20T01:26:18.439Z,998.42
2019-05-20T01:27:36.919Z,998.42
2019-05-20T01:28:29.265Z,998.4
2019-05-20T01:28:55.404Z,998.42
2019-05-20T01:29:47.755Z,998.46
2019-05-20T01:31:06.272Z,998.51
2019-05-20T01:31:58.576Z,998.51
2019-05-20T01:33:17.130Z,998.57
2019-05-20T01:34:09.480Z,998.59
2019-05-20T01:34:35.621Z,998.64
2019-05-20T01:35:27.921Z,998.63
2019-05-20T01:36:46.386Z,998.63
2019-05-20T01:37:38.776Z,998.61
2019-05-20T01:38:04.910Z,998.63
2019-05-20T01:38:57.235Z,998.63
2019-05-20T01:39:49.628Z,998.63
2019-05-20T01:40:15.845Z,998.64
2019-05-20T01:41:08.156Z,998.61
2019-05-20T01:42:26.638Z,998.63
2019-05-20T01:43:18.974Z,998.55
2019-05-20T01:43:45.112Z,998.6
2019-05-20T01:44:37.481Z,998.57
2019-05-20T01:45:29.789Z,998.56
2019-05-20T01:45:55.923Z,998.61
2019-05-20T01:46:48.271Z,998.6
2019-05-20T01:48:06.764Z,998.6
2019-05-20T01:48:59.123Z,998.61
2019-05-20T01:49:25.278Z,998.65
2019-05-20T01:50:17.556Z,998.65
2019-05-20T01:51:09.950Z,998.65
2019-05-20T01:51:36.099Z,998.66
2019-05-20T01:52:28.419Z,998.65
2019-05-20T01:53:46.909Z,998.69
2019-05-20T01:54:39.235Z,998.71
2019-05-20T01:55:05.374Z,998.69
2019-05-20T01:55:57.673Z,998.68
2019-05-20T01:56:50.036Z,998.7
2019-05-20T01:57:16.227Z,998.7
2019-05-20T01:58:08.609Z,998.7
2019-05-20T01:59:27.137Z,998.7
2019-05-20T02:00:19.504Z,998.68
2019-05-20T02:00:45.675Z,998.75
2019-05-20T02:01:38.074Z,998.75
2019-05-20T02:02:56.590Z,998.74
2019-05-20T02:03:50.049Z,998.76
2019-05-20T02:04:16.196Z,998.73
2019-05-20T02:05:08.551Z,998.69
2019-05-20T02:06:27.011Z,998.72
2019-05-20T02:07:19.375Z,998.73
2019-05-20T02:07:45.579Z,998.74
2019-05-20T02:08:37.863Z,998.73
2019-05-20T02:09:56.373Z,998.75
2019-05-20T02:10:48.774Z,998.75
2019-05-20T02:11:14.946Z,998.75
2019-05-20T02:12:07.267Z,998.77
2019-05-20T02:12:59.617Z,998.75
2019-05-20T02:13:25.786Z,998.72
2019-05-20T02:14:18.166Z,998.77
2019-05-20T02:15:36.604Z,998.74
2019-05-20T02:16:28.924Z,998.77
2019-05-20T02:16:55.139Z,998.78
2019-05-20T02:17:47.450Z,998.76
2019-05-20T02:18:39.855Z,998.77
2019-05-20T02:19:05.994Z,998.76
2019-05-20T02:19:58.292Z,998.76
2019-05-20T02:21:16.858Z,998.81
2019-05-20T02:22:09.210Z,998.78
2019-05-20T02:22:35.374Z,998.81
2019-05-20T02:23:27.706Z,998.78
2019-05-20T02:24:20.042Z,998.79
2019-05-20T02:24:46.181Z,998.75
2019-05-20T02:25:38.504Z,998.75
2019-05-20T02:26:57.030Z,998.74
2019-05-20T02:27:49.359Z,998.75
2019-05-20T02:28:15.500Z,998.7
2019-05-20T02:29:07.871Z,998.76
2019-05-20T02:30:26.449Z,998.74
2019-05-20T02:31:18.903Z,998.73
2019-05-20T02:31:45.087Z,998.76
2019-05-20T02:32:37.393Z,998.7
2019-05-20T02:33:29.800Z,998.78
2019-05-20T02:33:57.916Z,998.75
2019-05-20T02:35:16.444Z,998.74
2019-05-20T02:36:08.824Z,998.71
2019-05-20T02:36:34.974Z,998.72
2019-05-20T02:37:27.286Z,998.72
2019-05-20T02:38:19.643Z,998.73
2019-05-20T02:38:45.773Z,998.73
2019-05-20T02:39:38.085Z,998.68
2019-05-20T02:40:56.553Z,998.67
2019-05-20T02:41:49.058Z,998.66
2019-05-20T02:42:15.189Z,998.65
2019-05-20T02:43:07.693Z,998.63
2019-05-20T02:44:26.329Z,998.66
2019-05-20T02:45:18.701Z,998.61
2019-05-20T02:45:44.871Z,998.6
2019-05-20T02:46:37.194Z,998.56
2019-05-20T02:47:29.602Z,998.57
2019-05-20T02:47:55.782Z,998.54
2019-05-20T02:48:48.138Z,998.53
2019-05-20T02:50:06.656Z,998.51
2019-05-20T02:50:59.019Z,998.5
2019-05-20T02:51:25.187Z,998.53
2019-05-20T02:52:17.478Z,998.53
2019-05-20T02:53:09.860Z,998.53
2019-05-20T02:53:36.028Z,998.58
2019-05-20T02:54:28.404Z,998.57
2019-05-20T02:55:46.930Z,998.63
2019-05-20T02:56:39.268Z,998.65
2019-05-20T02:57:05.409Z,998.66
2019-05-20T02:57:57.739Z,998.64
2019-05-20T02:59:16.213Z,998.72
2019-05-20T03:00:08.533Z,998.75
2019-05-20T03:01:27.016Z,998.73
2019-05-20T03:02:19.402Z,998.74
2019-05-20T03:02:45.524Z,998.71
2019-05-20T03:03:37.901Z,998.76
2019-05-20T03:04:11.905Z,998.74
2019-05-20T03:04:58.431Z,998.72
2019-05-20T03:06:16.887Z,998.72
2019-05-20T03:07:09.237Z,998.69
2019-05-20T03:07:35.375Z,998.73
2019-05-20T03:08:27.732Z,998.7
2019-05-20T03:09:47.268Z,998.7
2019-05-20T03:10:39.628Z,998.76
2019-05-20T03:11:05.779Z,998.75
2019-05-20T03:11:58.136Z,998.76
2019-05-20T03:13:16.579Z,998.77
2019-05-20T03:14:08.938Z,998.74
2019-05-20T03:14:35.066Z,998.75
2019-05-20T03:15:27.414Z,998.78
2019-05-20T03:16:19.745Z,998.81
2019-05-20T03:16:45.886Z,998.8
2019-05-20T03:17:38.226Z,998.81
2019-05-20T03:18:56.769Z,998.86
2019-05-20T03:19:49.095Z,998.85
2019-05-20T03:20:15.230Z,998.86
2019-05-20T03:21:07.544Z,998.88
2019-05-20T03:21:59.872Z,998.88
2019-05-20T03:22:26.017Z,998.87
2019-05-20T03:23:18.358Z,998.87
2019-05-20T03:24:36.827Z,998.87
2019-05-20T03:25:29.239Z,998.88
2019-05-20T03:25:55.409Z,998.84
2019-05-20T03:26:47.735Z,998.88
2019-05-20T03:27:40.064Z,998.87
2019-05-20T03:28:06.229Z,998.86
2019-05-20T03:28:58.569Z,998.91
2019-05-20T03:30:17.210Z,998.87
2019-05-20T03:31:09.521Z,998.88
2019-05-20T03:31:35.699Z,998.88
2019-05-20T03:32:28.000Z,998.88
2019-05-20T03:33:46.535Z,998.85
2019-05-20T03:35:09.945Z,998.86
2019-05-20T03:35:36.118Z,998.9
2019-05-20T03:36:28.449Z,998.83
2019-05-20T03:37:46.948Z,998.82
2019-05-20T03:38:39.311Z,998.84
2019-05-20T03:39:05.478Z,998.83
2019-05-20T03:39:57.797Z,998.82
2019-05-20T03:41:16.377Z,998.86
2019-05-20T03:42:08.757Z,998.81
2019-05-20T03:42:34.884Z,998.85
2019-05-20T03:43:27.258Z,998.86
2019-05-20T03:44:19.620Z,998.89
2019-05-20T03:44:45.821Z,998.88
2019-05-20T03:45:38.179Z,998.89
2019-05-20T03:46:56.700Z,998.93
2019-05-20T03:47:49.047Z,998.91
2019-05-20T03:48:15.193Z,998.9
2019-05-20T03:49:07.507Z,998.93
2019-05-20T03:49:59.887Z,998.95
2019-05-20T03:50:26.029Z,998.97
2019-05-20T03:51:18.328Z,998.97
2019-05-20T03:52:37.785Z,998.95
2019-05-20T03:53:56.475Z,998.94
2019-05-20T03:54:48.862Z,998.94
2019-05-20T03:55:15.062Z,998.97
2019-05-20T03:56:07.408Z,998.97
2019-05-20T03:56:59.822Z,998.95
2019-05-20T03:57:26.036Z,998.95
2019-05-20T03:58:18.356Z,999
2019-05-20T03:59:36.901Z,999.01
2019-05-20T04:00:29.238Z,999.01
2019-05-20T04:00:55.441Z,998.99
2019-05-20T04:01:47.825Z,999.01
2019-05-20T04:03:06.309Z,999
2019-05-20T04:03:58.667Z,999.04
2019-05-20T04:04:25.364Z,999.03
2019-05-20T04:05:19.723Z,999
2019-05-20T04:05:45.868Z,998.97
2019-05-20T04:06:38.249Z,998.99
2019-05-20T04:07:56.824Z,999.04
2019-05-20T04:08:49.076Z,999.03
2019-05-20T04:09:15.225Z,999.04
2019-05-20T04:10:07.551Z,999.07
2019-05-20T04:10:59.893Z,999.08
2019-05-20T04:11:26.043Z,999.12
2019-05-20T04:12:18.367Z,999.11
2019-05-20T04:13:36.842Z,999.14
2019-05-20T04:14:29.177Z,999.14
2019-05-20T04:14:55.321Z,999.11
2019-05-20T04:15:47.663Z,999.15
2019-05-20T04:16:40.007Z,999.13
2019-05-20T04:17:06.214Z,999.16
2019-05-20T04:17:58.617Z,999.15
2019-05-20T04:19:17.078Z,999.14
2019-05-20T04:20:09.428Z,999.12
2019-05-20T04:20:35.666Z,999.14
2019-05-20T04:21:27.981Z,999.15
2019-05-20T04:22:46.455Z,999.16
2019-05-20T04:23:38.834Z,999.19
2019-05-20T04:24:06.145Z,999.18
2019-05-20T04:24:58.301Z,999.2
2019-05-20T04:26:16.767Z,999.21
2019-05-20T04:27:09.080Z,999.26
2019-05-20T04:27:35.251Z,999.23
2019-05-20T04:28:27.559Z,999.25
2019-05-20T04:29:19.939Z,999.23
2019-05-20T04:29:46.108Z,999.26
2019-05-20T04:30:39.475Z,999.23
2019-05-20T04:31:05.610Z,999.26
2019-05-20T04:31:58.006Z,999.23
2019-05-20T04:33:16.414Z,999.21
2019-05-20T04:34:08.721Z,999.2
2019-05-20T04:34:34.889Z,999.18
2019-05-20T04:35:29.232Z,999.2
2019-05-20T04:35:55.422Z,999.19
2019-05-20T04:36:47.710Z,999.19
2019-05-20T04:37:39.989Z,999.19
2019-05-20T04:38:06.152Z,999.18
2019-05-20T04:38:58.437Z,999.18
2019-05-20T04:40:16.966Z,999.14
2019-05-20T04:41:09.255Z,999.12
2019-05-20T04:41:35.840Z,999.14
2019-05-20T04:42:28.315Z,999.16
2019-05-20T04:43:46.841Z,999.14
2019-05-20T04:44:39.265Z,999.11
2019-05-20T04:45:05.428Z,999.14
2019-05-20T04:45:57.723Z,999.09
2019-05-20T04:47:17.225Z,999.11
2019-05-20T04:48:13.303Z,999.11
2019-05-20T04:48:36.704Z,999.11
2019-05-20T04:49:29.046Z,999.07
2019-05-20T04:49:55.266Z,999.07
2019-05-20T04:50:47.562Z,999.08
2019-05-20T04:51:39.896Z,999.07
2019-05-20T04:52:06.094Z,999.05
2019-05-20T04:52:58.412Z,999
2019-05-20T04:54:16.952Z,999.08
2019-05-20T04:55:09.291Z,999.09
2019-05-20T04:55:35.418Z,999.07
2019-05-20T04:56:29.301Z,999.08
2019-05-20T04:56:54.894Z,999.13
2019-05-20T04:57:47.215Z,999.21
2019-05-20T04:58:39.508Z,999.2
2019-05-20T04:59:05.671Z,999.2
2019-05-20T04:59:57.984Z,999.29
2019-05-20T05:01:16.459Z,999.3
2019-05-20T05:02:08.757Z,999.3
2019-05-20T05:02:34.894Z,999.33
2019-05-20T05:03:27.289Z,999.32
2019-05-20T05:04:19.587Z,999.33
2019-05-20T05:04:45.725Z,999.3
2019-05-20T05:05:38.998Z,999.34
2019-05-20T05:06:05.165Z,999.3
2019-05-20T05:06:57.481Z,999.32
2019-05-20T05:07:49.767Z,999.36
2019-05-20T05:08:15.895Z,999.36
2019-05-20T05:09:08.306Z,999.41
2019-05-20T05:10:26.803Z,999.46
2019-05-20T05:11:19.147Z,999.45
2019-05-20T05:11:45.315Z,999.44
2019-05-20T05:12:37.674Z,999.45
2019-05-20T05:13:29.975Z,999.46
2019-05-20T05:13:56.116Z,999.45
2019-05-20T05:14:48.403Z,999.4
2019-05-20T05:16:06.920Z,999.41
2019-05-20T05:16:59.215Z,999.41
2019-05-20T05:17:25.350Z,999.4
2019-05-20T05:18:18.299Z,999.39
2019-05-20T05:19:36.768Z,999.36
2019-05-20T05:20:56.210Z,999.33
2019-05-20T05:21:48.532Z,999.37
2019-05-20T05:23:07.057Z,999.32
2019-05-20T05:24:27.501Z,999.38
2019-05-20T05:25:19.785Z,999.36
2019-05-20T05:25:45.925Z,999.32
2019-05-20T05:26:38.224Z,999.39
2019-05-20T05:27:58.727Z,999.39
2019-05-20T05:28:24.901Z,999.38
2019-05-20T05:29:17.200Z,999.35
2019-05-20T05:30:09.959Z,999.36
2019-05-20T05:30:36.070Z,999.34
2019-05-20T05:31:28.670Z,999.42
2019-05-20T05:31:54.843Z,999.33
2019-05-20T05:32:47.169Z,999.39
2019-05-20T05:33:39.467Z,999.4
2019-05-20T05:34:05.596Z,999.37
2019-05-20T05:34:57.898Z,999.45
2019-05-20T05:36:17.352Z,999.39
2019-05-20T05:37:09.658Z,999.47
2019-05-20T05:37:35.818Z,999.41
2019-05-20T05:38:28.312Z,999.37
2019-05-20T05:39:46.748Z,999.4
2019-05-20T05:40:39.750Z,999.41
2019-05-20T05:41:05.890Z,999.43
2019-05-20T05:41:58.231Z,999.4
2019-05-20T05:43:16.745Z,999.39
2019-05-20T05:44:09.070Z,999.4
2019-05-20T05:44:35.209Z,999.43
2019-05-20T05:45:29.277Z,999.42
2019-05-20T05:46:47.031Z,999.41
2019-05-20T05:47:39.387Z,999.39
2019-05-20T05:48:05.551Z,999.42
2019-05-20T05:48:57.875Z,999.39
2019-05-20T05:50:16.402Z,999.44
2019-05-20T05:51:08.732Z,999.42
2019-05-20T05:51:34.923Z,999.44
2019-05-20T05:52:27.446Z,999.45
2019-05-20T05:53:19.786Z,999.45
2019-05-20T05:53:46.002Z,999.47
2019-05-20T05:54:38.328Z,999.48
2019-05-20T05:55:56.806Z,999.5
2019-05-20T05:56:49.127Z,999.5
2019-05-20T05:57:15.285Z,999.51
2019-05-20T05:58:08.648Z,999.56
2019-05-20T05:59:27.153Z,999.49
2019-05-20T06:00:19.468Z,999.49
2019-05-20T06:00:45.699Z,999.49
2019-05-20T06:01:38.031Z,999.5
2019-05-20T06:02:56.503Z,999.48
2019-05-20T06:03:48.930Z,999.44
2019-05-20T06:04:15.072Z,999.46
2019-05-20T06:05:07.381Z,999.46
2019-05-20T06:06:11.053Z,999.46
2019-05-20T06:06:26.880Z,999.45
2019-05-20T06:07:19.167Z,999.46
2019-05-20T06:07:45.344Z,999.45
2019-05-20T06:08:37.650Z,999.44
2019-05-20T06:09:56.249Z,999.4
2019-05-20T06:10:48.601Z,999.38
2019-05-20T06:12:07.195Z,999.42
2019-05-20T06:12:59.470Z,999.45
2019-05-20T06:13:25.635Z,999.43
2019-05-20T06:14:17.988Z,999.41
2019-05-20T06:15:36.449Z,999.46
2019-05-20T06:16:36.287Z,999.45
2019-05-20T06:16:55.975Z,999.5
2019-05-20T06:17:48.321Z,999.47
2019-05-20T06:19:06.846Z,999.5
2019-05-20T06:19:59.158Z,999.51
2019-05-20T06:20:25.313Z,999.5
2019-05-20T06:21:17.653Z,999.54
2019-05-20T06:22:09.967Z,999.48
2019-05-20T06:22:36.124Z,999.5
2019-05-20T06:23:28.516Z,999.5
2019-05-20T06:24:47.005Z,999.54
2019-05-20T06:25:39.387Z,999.54
2019-05-20T06:26:05.529Z,999.55
2019-05-20T06:26:57.867Z,999.5
2019-05-20T06:28:16.330Z,999.51
2019-05-20T06:29:08.702Z,999.55
2019-05-20T06:29:34.864Z,999.52
2019-05-20T06:30:27.179Z,999.54
2019-05-20T06:31:19.523Z,999.57
2019-05-20T06:31:45.664Z,999.58
2019-05-20T06:32:37.978Z,999.59
2019-05-20T06:33:56.497Z,999.6
2019-05-20T06:34:48.794Z,999.65
2019-05-20T06:35:15.099Z,999.64
2019-05-20T06:36:07.286Z,999.64
2019-05-20T06:36:59.601Z,999.66
2019-05-20T06:37:25.769Z,999.64
2019-05-20T06:38:18.071Z,999.7
2019-05-20T06:39:36.581Z,999.69
2019-05-20T06:40:28.908Z,999.72
2019-05-20T06:40:55.102Z,999.7
2019-05-20T06:41:47.430Z,999.7
2019-05-20T06:42:39.749Z,999.71
2019-05-20T06:43:05.961Z,999.71
2019-05-20T06:43:58.263Z,999.71
2019-05-20T06:45:17.756Z,999.68
2019-05-20T06:46:10.085Z,999.72
2019-05-20T06:46:36.232Z,999.67
2019-05-20T06:47:28.521Z,999.69
2019-05-20T06:48:47.045Z,999.68
2019-05-20T06:49:39.366Z,999.68
2019-05-20T06:50:05.500Z,999.71
2019-05-20T06:50:57.886Z,999.66
2019-05-20T06:52:16.378Z,999.72
2019-05-20T06:53:09.694Z,999.78
2019-05-20T06:53:35.839Z,999.77
2019-05-20T06:54:28.134Z,999.82
2019-05-20T06:55:46.694Z,999.87
2019-05-20T06:56:39.029Z,999.87
2019-05-20T06:57:05.238Z,999.86
2019-05-20T06:57:57.604Z,999.85
2019-05-20T06:58:49.903Z,999.89
2019-05-20T06:59:16.091Z,999.83
2019-05-20T07:00:08.429Z,999.82
2019-05-20T07:01:26.887Z,999.81
2019-05-20T07:02:19.226Z,999.88
2019-05-20T07:02:45.386Z,999.84
2019-05-20T07:03:37.697Z,999.83
2019-05-20T07:04:30.057Z,999.87
2019-05-20T07:04:56.188Z,999.85
2019-05-20T07:05:48.505Z,999.85
2019-05-20T07:07:20.224Z,999.92
2019-05-20T07:07:35.111Z,999.9
2019-05-20T07:08:27.452Z,999.87
2019-05-20T07:09:19.762Z,999.88
2019-05-20T07:09:45.930Z,999.9
2019-05-20T07:10:38.272Z,999.89
2019-05-20T07:11:57.739Z,999.94
2019-05-20T07:13:16.522Z,999.91
2019-05-20T07:14:08.816Z,999.94
2019-05-20T07:14:35.033Z,999.95
2019-05-20T07:15:27.330Z,999.96
2019-05-20T07:16:19.705Z,999.99
2019-05-20T07:16:45.882Z,999.97
2019-05-20T07:17:38.208Z,999.98
2019-05-20T07:18:56.680Z,1000.03
2019-05-20T07:19:48.988Z,1000.03
2019-05-20T07:20:15.152Z,1000.06
2019-05-20T07:21:07.481Z,1000.03
2019-05-20T07:21:59.781Z,1000.11
2019-05-20T07:22:25.968Z,1000.12
2019-05-20T07:23:18.364Z,1000.14
2019-05-20T07:24:37.840Z,1000.16
2019-05-20T07:25:56.399Z,1000.14
2019-05-20T07:26:48.694Z,1000.17
2019-05-20T07:27:14.830Z,1000.21
2019-05-20T07:28:07.137Z,1000.17
2019-05-20T07:28:59.596Z,1000.16
2019-05-20T07:29:25.763Z,1000.16
2019-05-20T07:30:18.126Z,1000.2
2019-05-20T07:31:36.863Z,1000.19
2019-05-20T07:32:29.177Z,1000.14
2019-05-20T07:32:55.389Z,1000.14
2019-05-20T07:33:47.768Z,1000.13
2019-05-20T07:35:06.284Z,1000.1
2019-05-20T07:35:59.813Z,1000.11
2019-05-20T07:36:25.972Z,1000.13
2019-05-20T07:37:19.329Z,1000.11
2019-05-20T07:37:45.608Z,1000.14
2019-05-20T07:38:38.020Z,1000.12
2019-05-20T07:39:56.679Z,1000.08
2019-05-20T07:40:49.023Z,1000.12
2019-05-20T07:41:15.195Z,1000.09
2019-05-20T07:42:07.579Z,1000.09
2019-05-20T07:42:59.967Z,1000.04
2019-05-20T07:43:26.105Z,1000.07
2019-05-20T07:44:18.506Z,1000.01
2019-05-20T07:45:37.047Z,1000.1
2019-05-20T07:46:29.329Z,1000.11
2019-05-20T07:46:55.523Z,1000.11
2019-05-20T07:47:47.839Z,1000.09
2019-05-20T07:49:06.577Z,1000.12
2019-05-20T07:49:58.913Z,1000.13
2019-05-20T07:50:25.080Z,1000.12
2019-05-20T07:51:17.386Z,1000.14
2019-05-20T07:52:09.831Z,1000.13
2019-05-20T07:52:36.042Z,1000.14
2019-05-20T07:53:28.431Z,1000.12
2019-05-20T07:54:47.010Z,1000.13
2019-05-20T07:55:39.354Z,1000.11
2019-05-20T07:56:05.524Z,1000.12
2019-05-20T07:56:57.819Z,1000.08
2019-05-20T07:58:16.510Z,1000.11
2019-05-20T07:59:08.811Z,1000.1
2019-05-20T07:59:34.982Z,1000.09
2019-05-20T08:00:27.354Z,1000.13
2019-05-20T08:01:19.737Z,1000.1
2019-05-20T08:01:45.924Z,1000.1
2019-05-20T08:02:38.287Z,1000.12
2019-05-20T08:03:57.782Z,1000.15
2019-05-20T08:05:16.501Z,1000.15
2019-05-20T08:06:08.791Z,1000.16
2019-05-20T08:06:34.957Z,1000.15
2019-05-20T08:07:41.523Z,1000.17
2019-05-20T08:08:46.932Z,1000.17
2019-05-20T08:09:44.830Z,1000.18
2019-05-20T08:10:05.507Z,1000.21
2019-05-20T08:10:57.849Z,1000.15
2019-05-20T08:12:16.462Z,1000.18
2019-05-20T08:13:08.836Z,1000.24
2019-05-20T08:13:34.988Z,1000.24
2019-05-20T08:14:27.347Z,1000.26
2019-05-20T08:15:19.748Z,1000.25
2019-05-20T08:15:45.895Z,1000.26
2019-05-20T08:16:38.254Z,1000.22
2019-05-20T08:17:56.741Z,1000.25
2019-05-20T08:18:50.195Z,1000.26
2019-05-20T08:19:16.295Z,1000.27
2019-05-20T08:20:08.683Z,1000.27
2019-05-20T08:21:27.154Z,1000.31
2019-05-20T08:22:19.505Z,1000.3
2019-05-20T08:22:45.647Z,1000.27
2019-05-20T08:23:38.041Z,1000.35
2019-05-20T08:24:56.581Z,1000.29
2019-05-20T08:25:48.975Z,1000.35
2019-05-20T08:26:15.132Z,1000.33
2019-05-20T08:27:07.590Z,1000.36
2019-05-20T08:27:59.902Z,1000.39
2019-05-20T08:28:26.041Z,1000.33
2019-05-20T08:29:18.430Z,1000.42
2019-05-20T08:30:36.878Z,1000.35
2019-05-20T08:31:29.282Z,1000.38
2019-05-20T08:31:55.450Z,1000.38
2019-05-20T08:32:47.846Z,1000.39
2019-05-20T08:34:06.478Z,1000.38
2019-05-20T08:34:58.895Z,1000.38
2019-05-20T08:35:25.103Z,1000.42
2019-05-20T08:36:17.486Z,1000.35
2019-05-20T08:37:09.896Z,1000.4
2019-05-20T08:37:45.154Z,1000.41
2019-05-20T08:38:29.343Z,1000.43
2019-05-20T08:38:55.536Z,1000.38
2019-05-20T08:39:47.856Z,1000.44
2019-05-20T08:41:07.348Z,1000.46
2019-05-20T08:41:59.723Z,1000.44
2019-05-20T08:42:25.890Z,1000.42
2019-05-20T08:43:18.224Z,1000.48
2019-05-20T08:44:36.736Z,1000.48
2019-05-20T08:45:29.094Z,1000.47
2019-05-20T08:45:55.241Z,1000.42
2019-05-20T08:46:47.592Z,1000.47
2019-05-20T08:47:39.998Z,1000.48
2019-05-20T08:48:06.204Z,1000.44
2019-05-20T08:48:58.591Z,1000.44
2019-05-20T08:50:17.311Z,1000.45
2019-05-20T08:51:09.707Z,1000.52
2019-05-20T08:51:35.880Z,1000.5
2019-05-20T08:52:28.276Z,1000.49
2019-05-20T08:53:46.823Z,1000.46
2019-05-20T08:54:40.374Z,1000.45
2019-05-20T08:55:06.318Z,1000.45
2019-05-20T08:55:58.691Z,1000.49
2019-05-20T08:56:24.960Z,1000.47
2019-05-20T08:57:18.291Z,1000.45
2019-05-20T08:58:36.907Z,1000.46
2019-05-20T08:59:29.229Z,1000.5
2019-05-20T08:59:55.366Z,1000.48
2019-05-20T09:00:47.853Z,1000.49
2019-05-20T09:02:06.465Z,1000.51
2019-05-20T09:02:58.887Z,1000.48
2019-05-20T09:03:25.017Z,1000.48
2019-05-20T09:04:17.325Z,1000.5
2019-05-20T09:05:09.739Z,1000.5
2019-05-20T09:05:36.898Z,1000.48
2019-05-20T09:06:29.290Z,1000.53
2019-05-20T09:06:55.452Z,1000.51
2019-05-20T09:08:01.372Z,1000.56
2019-05-20T09:08:15.908Z,1000.52
2019-05-20T09:09:11.864Z,1000.53
2019-05-20T09:09:35.544Z,1000.5
2019-05-20T09:10:27.935Z,1000.49
2019-05-20T09:10:55.118Z,1000.5
2019-05-20T09:11:48.125Z,1000.47
2019-05-20T09:12:39.868Z,1000.52
2019-05-20T09:13:06.044Z,1000.52
2019-05-20T09:13:58.391Z,1000.55
2019-05-20T09:15:16.927Z,1000.54
2019-05-20T09:16:09.275Z,1000.57
2019-05-20T09:16:35.430Z,1000.58
2019-05-20T09:17:27.768Z,1000.53
2019-05-20T09:17:54.921Z,1000.53
2019-05-20T09:18:47.338Z,1000.49
2019-05-20T09:19:39.681Z,1000.54
2019-05-20T09:20:06.846Z,1000.52
2019-05-20T09:20:59.203Z,1000.52
2019-05-20T09:21:25.432Z,1000.49
2019-05-20T09:22:17.835Z,1000.49
2019-05-20T09:23:37.282Z,1000.49
2019-05-20T09:24:29.681Z,1000.49
2019-05-20T09:24:56.073Z,1000.49
2019-05-20T09:25:48.470Z,1000.44
2019-05-20T09:27:06.961Z,1000.44
2019-05-20T09:27:59.277Z,1000.36
2019-05-20T09:28:25.420Z,1000.4
2019-05-20T09:29:17.785Z,1000.44
2019-05-20T09:30:36.371Z,1000.42
2019-05-20T09:31:28.730Z,1000.44
2019-05-20T09:31:54.899Z,1000.45
2019-05-20T09:32:47.243Z,1000.42
2019-05-20T09:33:39.603Z,1000.45
2019-05-20T09:34:05.796Z,1000.44
2019-05-20T09:34:58.121Z,1000.41
2019-05-20T09:36:17.025Z,1000.44
2019-05-20T09:37:09.331Z,1000.47
2019-05-20T09:37:35.449Z,1000.46
2019-05-20T09:38:29.755Z,1000.53
2019-05-20T09:38:56.935Z,1000.48
2019-05-20T09:39:49.218Z,1000.51
2019-05-20T09:40:15.356Z,1000.45
2019-05-20T09:41:07.731Z,1000.45
2019-05-20T09:42:26.342Z,1000.49
2019-05-20T09:43:18.885Z,1000.5
2019-05-20T09:43:45.221Z,1000.52
2019-05-20T09:44:37.548Z,1000.49
2019-05-20T09:46:07.226Z,1000.58
2019-05-20T09:47:16.501Z,1000.58
2019-05-20T09:48:09.200Z,1000.58
2019-05-20T09:48:35.953Z,1000.58
2019-05-20T09:49:28.316Z,1000.56
2019-05-20T09:50:46.813Z,1000.62
2019-05-20T09:51:39.137Z,1000.57
2019-05-20T09:52:05.279Z,1000.58
2019-05-20T09:52:57.601Z,1000.56
2019-05-20T09:53:49.983Z,1000.57
2019-05-20T09:54:16.129Z,1000.56
2019-05-20T09:55:08.456Z,1000.6
2019-05-20T09:56:27.020Z,1000.59
2019-05-20T09:57:19.432Z,1000.6
2019-05-20T09:57:45.575Z,1000.58
2019-05-20T09:58:37.951Z,1000.63
2019-05-20T09:59:57.464Z,1000.64
2019-05-20T10:00:49.765Z,1000.64
2019-05-20T10:01:15.900Z,1000.65
2019-05-20T10:02:08.340Z,1000.63
2019-05-20T10:02:38.144Z,1000.64
2019-05-20T10:03:27.960Z,1000.62
2019-05-20T10:04:46.459Z,1000.57
2019-05-20T10:05:38.778Z,1000.6
2019-05-20T10:06:04.955Z,1000.65
2019-05-20T10:06:57.284Z,1000.69
2019-05-20T10:07:49.579Z,1000.71
2019-05-20T10:08:15.759Z,1000.67
2019-05-20T10:09:09.068Z,1000.63
2019-05-20T10:09:35.220Z,1000.65
2019-05-20T10:10:27.554Z,1000.65
2019-05-20T10:11:19.955Z,1000.63
2019-05-20T10:11:46.191Z,1000.64
2019-05-20T10:13:08.097Z,1000.6
2019-05-20T10:13:59.697Z,1000.67
2019-05-20T10:14:25.886Z,1000.65
2019-05-20T10:15:18.178Z,1000.68
2019-05-20T10:16:36.699Z,1000.67
2019-05-20T10:17:29.046Z,1000.71
2019-05-20T10:17:55.202Z,1000.7
2019-05-20T10:18:48.512Z,1000.71